SJX847 RJFT-RCTP
Flight info
| Callsign | SJX847 |
|---|---|
| Flight time | 2h 3m |
| Altitude | 40000 |
| Route | MIFNE HKC A1 DRAKE DRAKE1A |
| Aircraft | A359/H-SDE2E3GHIJ3J4J5LM1ORWXY/LB1D1 |
Departure
| Time | 2026-05-05 11:09 |
|---|---|
| Airport | Kumamoto Airport (RJFT) |
Arrival
| Time | 2026-05-05 13:13 |
|---|---|
| Airport | Taiwan Taoyuan International Airport (RCTP) |
| Time | Latitude | Longitude | Altitude | Speed | Heading |
|---|---|---|---|---|---|
| 2026-05-05 10:45 | 32.83590 | 130.85950 | 649 ft | 0 kts | 154° |
| 2026-05-05 10:58 | 32.83590 | 130.85949 | 647 ft | 0 kts | 154° |
| 2026-05-05 11:01 | 32.83591 | 130.85949 | 647 ft | 2 kts | 154° |
| 2026-05-05 11:01 | 32.83609 | 130.85939 | 650 ft | 3 kts | 154° |
| 2026-05-05 11:02 | 32.83627 | 130.85928 | 650 ft | 3 kts | 154° |
| 2026-05-05 11:02 | 32.83646 | 130.85918 | 654 ft | 3 kts | 154° |
| 2026-05-05 11:02 | 32.83664 | 130.85908 | 655 ft | 3 kts | 154° |
| 2026-05-05 11:02 | 32.83681 | 130.85898 | 655 ft | 3 kts | 146° |
| 2026-05-05 11:03 | 32.83693 | 130.85884 | 653 ft | 3 kts | 101° |
| 2026-05-05 11:03 | 32.83692 | 130.85863 | 654 ft | 3 kts | 67° |
| 2026-05-05 11:03 | 32.83684 | 130.85842 | 656 ft | 2 kts | 64° |
| 2026-05-05 11:03 | 32.83681 | 130.85836 | 656 ft | 0 kts | 64° |
| 2026-05-05 11:06 | 32.83684 | 130.85842 | 656 ft | 4 kts | 65° |
| 2026-05-05 11:06 | 32.83709 | 130.85906 | 652 ft | 12 kts | 64° |
| 2026-05-05 11:06 | 32.83749 | 130.86005 | 651 ft | 14 kts | 64° |
| 2026-05-05 11:06 | 32.83796 | 130.86122 | 652 ft | 17 kts | 64° |
| 2026-05-05 11:07 | 32.83853 | 130.86263 | 650 ft | 20 kts | 64° |
| 2026-05-05 11:07 | 32.83914 | 130.86417 | 651 ft | 20 kts | 64° |
| 2026-05-05 11:07 | 32.83975 | 130.86567 | 652 ft | 20 kts | 64° |
| 2026-05-05 11:07 | 32.84037 | 130.86722 | 653 ft | 21 kts | 64° |
| 2026-05-05 11:08 | 32.84102 | 130.86884 | 656 ft | 21 kts | 65° |
| 2026-05-05 11:08 | 32.84187 | 130.87002 | 657 ft | 13 kts | 0° |
| 2026-05-05 11:08 | 32.84274 | 130.86962 | 657 ft | 13 kts | 333° |
| 2026-05-05 11:08 | 32.84290 | 130.86905 | 656 ft | 10 kts | 256° |
| 2026-05-05 11:09 | 32.84221 | 130.86717 | 657 ft | 48 kts | 245° |
| 2026-05-05 11:09 | 32.83971 | 130.86099 | 651 ft | 116 kts | 244° |
| 2026-05-05 11:09 | 32.83546 | 130.85033 | 753 ft | 161 kts | 244° |
| 2026-05-05 11:09 | 32.83072 | 130.83859 | 1436 ft | 155 kts | 244° |
| 2026-05-05 11:10 | 32.82606 | 130.82675 | 2069 ft | 166 kts | 244° |
| 2026-05-05 11:10 | 32.82074 | 130.81355 | 2377 ft | 190 kts | 243° |
| 2026-05-05 11:10 | 32.81463 | 130.79845 | 2662 ft | 217 kts | 243° |
| 2026-05-05 11:10 | 32.80650 | 130.78206 | 2981 ft | 243 kts | 228° |
| 2026-05-05 11:11 | 32.79206 | 130.77147 | 3623 ft | 251 kts | 193° |
| 2026-05-05 11:11 | 32.77466 | 130.76887 | 4491 ft | 253 kts | 183° |
| 2026-05-05 11:11 | 32.75703 | 130.76792 | 5364 ft | 255 kts | 182° |
| 2026-05-05 11:11 | 32.73921 | 130.76701 | 6212 ft | 259 kts | 182° |
| 2026-05-05 11:12 | 32.72104 | 130.76600 | 7061 ft | 263 kts | 182° |
| 2026-05-05 11:12 | 32.70276 | 130.76489 | 7965 ft | 265 kts | 182° |
| 2026-05-05 11:12 | 32.68425 | 130.76371 | 8861 ft | 268 kts | 183° |
| 2026-05-05 11:12 | 32.66550 | 130.76248 | 9765 ft | 272 kts | 183° |
| 2026-05-05 11:13 | 32.64625 | 130.76175 | 10469 ft | 283 kts | 179° |
| 2026-05-05 11:13 | 32.62602 | 130.76487 | 10851 ft | 305 kts | 169° |
| 2026-05-05 11:13 | 32.60482 | 130.77134 | 11193 ft | 326 kts | 165° |
| 2026-05-05 11:13 | 32.58259 | 130.77986 | 11555 ft | 344 kts | 162° |
| 2026-05-05 11:14 | 32.55964 | 130.78950 | 12156 ft | 354 kts | 161° |
| 2026-05-05 11:14 | 32.53632 | 130.79947 | 12889 ft | 358 kts | 161° |
| 2026-05-05 11:14 | 32.51273 | 130.80940 | 13645 ft | 362 kts | 162° |
| 2026-05-05 11:14 | 32.48871 | 130.81928 | 14321 ft | 367 kts | 162° |
| 2026-05-05 11:15 | 32.46437 | 130.82909 | 14947 ft | 372 kts | 163° |
| 2026-05-05 11:15 | 32.43965 | 130.83888 | 15551 ft | 377 kts | 163° |
| 2026-05-05 11:15 | 32.41451 | 130.84875 | 16153 ft | 384 kts | 164° |
| 2026-05-05 11:15 | 32.38903 | 130.85873 | 16815 ft | 388 kts | 164° |
| 2026-05-05 11:16 | 32.36324 | 130.86883 | 17512 ft | 393 kts | 165° |
| 2026-05-05 11:16 | 32.33718 | 130.87902 | 18165 ft | 398 kts | 165° |
| 2026-05-05 11:16 | 32.31069 | 130.88928 | 18762 ft | 402 kts | 166° |
| 2026-05-05 11:16 | 32.28401 | 130.89945 | 19350 ft | 405 kts | 167° |
| 2026-05-05 11:17 | 32.25702 | 130.90968 | 19951 ft | 408 kts | 167° |
| 2026-05-05 11:17 | 32.22987 | 130.92003 | 20512 ft | 413 kts | 168° |
| 2026-05-05 11:17 | 32.20279 | 130.93046 | 21096 ft | 416 kts | 168° |
| 2026-05-05 11:17 | 32.17520 | 130.94112 | 21643 ft | 420 kts | 169° |
| 2026-05-05 11:18 | 32.14729 | 130.95180 | 22164 ft | 424 kts | 170° |
| 2026-05-05 11:18 | 32.11913 | 130.96257 | 22760 ft | 426 kts | 171° |
| 2026-05-05 11:18 | 32.09082 | 130.97347 | 23382 ft | 429 kts | 171° |
| 2026-05-05 11:18 | 32.06233 | 130.98430 | 23967 ft | 430 kts | 173° |
| 2026-05-05 11:19 | 32.03339 | 130.99251 | 24489 ft | 426 kts | 178° |
| 2026-05-05 11:19 | 32.00423 | 130.99665 | 25039 ft | 419 kts | 185° |
| 2026-05-05 11:19 | 31.97538 | 130.99594 | 25607 ft | 412 kts | 193° |
| 2026-05-05 11:19 | 31.94741 | 130.99021 | 26118 ft | 405 kts | 201° |
| 2026-05-05 11:20 | 31.92101 | 130.97969 | 26640 ft | 399 kts | 210° |
| 2026-05-05 11:20 | 31.89650 | 130.96478 | 27189 ft | 394 kts | 217° |
| 2026-05-05 11:20 | 31.87430 | 130.94605 | 27684 ft | 392 kts | 224° |
| 2026-05-05 11:20 | 31.85472 | 130.92396 | 28183 ft | 390 kts | 231° |
| 2026-05-05 11:21 | 31.83804 | 130.89891 | 28819 ft | 387 kts | 237° |
| 2026-05-05 11:21 | 31.82426 | 130.87185 | 29491 ft | 385 kts | 241° |
| 2026-05-05 11:21 | 31.81157 | 130.84405 | 29976 ft | 387 kts | 242° |
| 2026-05-05 11:21 | 31.79920 | 130.81572 | 30281 ft | 393 kts | 243° |
| 2026-05-05 11:22 | 31.78682 | 130.78692 | 30601 ft | 395 kts | 243° |
| 2026-05-05 11:22 | 31.77438 | 130.75806 | 30985 ft | 397 kts | 243° |
| 2026-05-05 11:22 | 31.76178 | 130.72903 | 31328 ft | 399 kts | 242° |
| 2026-05-05 11:22 | 31.74906 | 130.70003 | 31686 ft | 400 kts | 242° |
| 2026-05-05 11:23 | 31.73624 | 130.67095 | 32032 ft | 402 kts | 242° |
| 2026-05-05 11:23 | 31.72332 | 130.64176 | 32366 ft | 404 kts | 242° |
| 2026-05-05 11:23 | 31.71029 | 130.61240 | 32689 ft | 405 kts | 242° |
| 2026-05-05 11:23 | 31.69628 | 130.58435 | 33095 ft | 403 kts | 237° |
| 2026-05-05 11:24 | 31.68009 | 130.55751 | 33518 ft | 402 kts | 234° |
| 2026-05-05 11:24 | 31.66339 | 130.53124 | 33945 ft | 401 kts | 234° |
| 2026-05-05 11:24 | 31.64646 | 130.50530 | 34369 ft | 399 kts | 233° |
| 2026-05-05 11:24 | 31.62950 | 130.47964 | 34714 ft | 397 kts | 233° |
| 2026-05-05 11:25 | 31.61252 | 130.45410 | 35073 ft | 396 kts | 234° |
| 2026-05-05 11:25 | 31.59563 | 130.42867 | 35412 ft | 395 kts | 234° |
| 2026-05-05 11:25 | 31.57879 | 130.40330 | 35733 ft | 394 kts | 234° |
| 2026-05-05 11:25 | 31.56200 | 130.37797 | 36037 ft | 393 kts | 234° |
| 2026-05-05 11:26 | 31.54522 | 130.35265 | 36340 ft | 393 kts | 234° |
| 2026-05-05 11:26 | 31.52848 | 130.32738 | 36650 ft | 392 kts | 234° |
| 2026-05-05 11:26 | 31.51177 | 130.30214 | 36934 ft | 392 kts | 234° |
| 2026-05-05 11:26 | 31.49506 | 130.27692 | 37215 ft | 391 kts | 234° |
| 2026-05-05 11:27 | 31.47841 | 130.25182 | 37522 ft | 390 kts | 234° |
| 2026-05-05 11:27 | 31.46176 | 130.22673 | 37822 ft | 389 kts | 235° |
| 2026-05-05 11:27 | 31.44515 | 130.20173 | 38104 ft | 389 kts | 235° |
| 2026-05-05 11:27 | 31.42855 | 130.17674 | 38318 ft | 389 kts | 235° |
| 2026-05-05 11:28 | 31.41189 | 130.15172 | 38297 ft | 393 kts | 234° |
| 2026-05-05 11:28 | 31.39510 | 130.12660 | 38581 ft | 391 kts | 235° |
| 2026-05-05 11:28 | 31.37846 | 130.10157 | 38905 ft | 388 kts | 235° |
| 2026-05-05 11:28 | 31.36197 | 130.07656 | 39097 ft | 388 kts | 235° |
| 2026-05-05 11:29 | 31.34549 | 130.05146 | 39218 ft | 389 kts | 235° |
| 2026-05-05 11:29 | 31.32900 | 130.02633 | 39383 ft | 390 kts | 235° |
| 2026-05-05 11:29 | 31.32363 | 130.01816 | 39426 ft | 390 kts | 235° |
| 2026-05-05 11:29 | 31.30150 | 129.98452 | 39592 ft | 391 kts | 235° |
| 2026-05-05 11:30 | 31.27938 | 129.95104 | 39741 ft | 392 kts | 235° |
| 2026-05-05 11:30 | 31.26242 | 129.92554 | 39875 ft | 393 kts | 235° |
| 2026-05-05 11:30 | 31.24586 | 129.90073 | 40005 ft | 393 kts | 235° |
| 2026-05-05 11:30 | 31.22878 | 129.87519 | 40125 ft | 394 kts | 235° |
| 2026-05-05 11:31 | 31.21189 | 129.84994 | 40157 ft | 394 kts | 235° |
| 2026-05-05 11:31 | 31.17835 | 129.79983 | 40175 ft | 394 kts | 235° |
| 2026-05-05 11:32 | 31.14460 | 129.74945 | 40149 ft | 394 kts | 235° |
| 2026-05-05 11:32 | 31.11081 | 129.69906 | 40153 ft | 394 kts | 235° |
| 2026-05-05 11:33 | 31.07701 | 129.64871 | 40151 ft | 394 kts | 235° |
| 2026-05-05 11:33 | 31.04319 | 129.59840 | 40155 ft | 394 kts | 235° |
| 2026-05-05 11:34 | 31.00935 | 129.54813 | 40140 ft | 394 kts | 235° |
| 2026-05-05 11:34 | 30.97550 | 129.49791 | 40151 ft | 394 kts | 235° |
| 2026-05-05 11:35 | 30.94159 | 129.44767 | 40154 ft | 394 kts | 235° |
| 2026-05-05 11:35 | 30.90769 | 129.39750 | 40151 ft | 394 kts | 235° |
| 2026-05-05 11:36 | 30.87951 | 129.35584 | 40154 ft | 394 kts | 235° |
| 2026-05-05 11:36 | 30.84557 | 129.30574 | 40154 ft | 394 kts | 235° |
| 2026-05-05 11:37 | 30.80588 | 129.24722 | 40151 ft | 394 kts | 235° |
| 2026-05-05 11:37 | 30.77213 | 129.19743 | 40154 ft | 394 kts | 235° |
| 2026-05-05 11:38 | 30.73876 | 129.14692 | 40152 ft | 394 kts | 236° |
| 2026-05-05 11:38 | 30.71099 | 129.10446 | 40157 ft | 394 kts | 236° |
| 2026-05-05 11:39 | 30.67780 | 129.05380 | 40152 ft | 394 kts | 236° |
| 2026-05-05 11:39 | 30.64451 | 129.00319 | 40151 ft | 394 kts | 236° |
| 2026-05-05 11:40 | 30.61119 | 128.95264 | 40151 ft | 394 kts | 236° |
| 2026-05-05 11:40 | 30.57784 | 128.90212 | 40144 ft | 394 kts | 236° |
| 2026-05-05 11:41 | 30.54443 | 128.85158 | 40154 ft | 395 kts | 236° |
| 2026-05-05 11:41 | 30.51124 | 128.80142 | 40151 ft | 395 kts | 236° |
| 2026-05-05 11:42 | 30.47781 | 128.75096 | 40148 ft | 395 kts | 236° |
| 2026-05-05 11:42 | 30.44434 | 128.70052 | 40127 ft | 394 kts | 235° |
| 2026-05-05 11:43 | 30.41085 | 128.65010 | 40173 ft | 395 kts | 235° |
| 2026-05-05 11:43 | 30.37735 | 128.59972 | 40148 ft | 395 kts | 235° |
| 2026-05-05 11:44 | 30.34384 | 128.54941 | 40144 ft | 395 kts | 235° |
| 2026-05-05 11:44 | 30.31030 | 128.49911 | 40146 ft | 395 kts | 235° |
| 2026-05-05 11:45 | 30.27672 | 128.44880 | 40140 ft | 395 kts | 235° |
| 2026-05-05 11:45 | 30.24313 | 128.39856 | 40144 ft | 395 kts | 235° |
| 2026-05-05 11:46 | 30.20950 | 128.34830 | 40145 ft | 395 kts | 235° |
| 2026-05-05 11:46 | 30.17588 | 128.29814 | 40144 ft | 395 kts | 235° |
| 2026-05-05 11:47 | 30.14224 | 128.24801 | 40141 ft | 395 kts | 235° |
| 2026-05-05 11:47 | 30.10857 | 128.19788 | 40142 ft | 395 kts | 235° |
| 2026-05-05 11:48 | 30.05806 | 128.12281 | 40141 ft | 395 kts | 235° |
| 2026-05-05 11:48 | 30.02434 | 128.07278 | 40140 ft | 395 kts | 235° |
| 2026-05-05 11:49 | 29.99060 | 128.02277 | 40126 ft | 395 kts | 235° |
| 2026-05-05 11:49 | 29.95683 | 127.97279 | 40139 ft | 395 kts | 235° |
| 2026-05-05 11:50 | 29.92303 | 127.92281 | 40140 ft | 395 kts | 235° |
| 2026-05-05 11:50 | 29.88919 | 127.87285 | 40135 ft | 395 kts | 235° |
| 2026-05-05 11:51 | 29.85523 | 127.82351 | 40103 ft | 396 kts | 233° |
| 2026-05-05 11:51 | 29.81926 | 127.77479 | 40140 ft | 397 kts | 232° |
| 2026-05-05 11:52 | 29.78325 | 127.72696 | 40140 ft | 397 kts | 232° |
| 2026-05-05 11:52 | 29.74713 | 127.67881 | 40129 ft | 397 kts | 232° |
| 2026-05-05 11:53 | 29.71114 | 127.63067 | 40127 ft | 397 kts | 233° |
| 2026-05-05 11:53 | 29.67515 | 127.58249 | 40129 ft | 398 kts | 233° |
| 2026-05-05 11:54 | 29.63907 | 127.53425 | 40129 ft | 398 kts | 233° |
| 2026-05-05 11:54 | 29.60292 | 127.48598 | 40130 ft | 398 kts | 233° |
| 2026-05-05 11:55 | 29.56767 | 127.43754 | 40123 ft | 397 kts | 234° |
| 2026-05-05 11:55 | 29.53344 | 127.38784 | 40120 ft | 396 kts | 235° |
| 2026-05-05 11:56 | 29.49931 | 127.33795 | 40125 ft | 398 kts | 234° |
| 2026-05-05 11:56 | 29.46499 | 127.28812 | 40127 ft | 398 kts | 234° |
| 2026-05-05 11:57 | 29.43057 | 127.23840 | 40126 ft | 398 kts | 234° |
| 2026-05-05 11:57 | 29.39612 | 127.18875 | 40134 ft | 398 kts | 234° |
| 2026-05-05 11:58 | 29.36166 | 127.13914 | 40124 ft | 399 kts | 234° |
| 2026-05-05 11:58 | 29.32705 | 127.08935 | 40130 ft | 400 kts | 234° |
| 2026-05-05 11:59 | 29.29239 | 127.03957 | 40127 ft | 400 kts | 234° |
| 2026-05-05 11:59 | 29.25769 | 126.98978 | 40147 ft | 400 kts | 234° |
| 2026-05-05 12:00 | 29.22300 | 126.94007 | 40108 ft | 399 kts | 234° |
| 2026-05-05 12:00 | 29.18836 | 126.89049 | 40127 ft | 399 kts | 234° |
| 2026-05-05 12:01 | 29.15364 | 126.84084 | 40124 ft | 399 kts | 234° |
| 2026-05-05 12:01 | 29.11891 | 126.79124 | 40121 ft | 400 kts | 234° |
| 2026-05-05 12:02 | 29.08416 | 126.74168 | 40143 ft | 400 kts | 234° |
| 2026-05-05 12:02 | 29.04942 | 126.69219 | 40111 ft | 399 kts | 234° |
| 2026-05-05 12:03 | 29.01457 | 126.64260 | 40126 ft | 400 kts | 234° |
| 2026-05-05 12:03 | 28.97996 | 126.59342 | 40123 ft | 400 kts | 234° |
| 2026-05-05 12:04 | 28.94449 | 126.54429 | 40115 ft | 401 kts | 233° |
| 2026-05-05 12:04 | 28.90845 | 126.49579 | 40145 ft | 401 kts | 233° |
| 2026-05-05 12:05 | 28.87234 | 126.44735 | 40123 ft | 401 kts | 233° |
| 2026-05-05 12:05 | 28.83627 | 126.39886 | 40121 ft | 401 kts | 233° |
| 2026-05-05 12:06 | 28.80018 | 126.35031 | 40128 ft | 401 kts | 233° |
| 2026-05-05 12:06 | 28.76412 | 126.30184 | 40123 ft | 401 kts | 233° |
| 2026-05-05 12:07 | 28.72801 | 126.25336 | 40098 ft | 401 kts | 233° |
| 2026-05-05 12:07 | 28.69179 | 126.20479 | 40122 ft | 403 kts | 233° |
| 2026-05-05 12:08 | 28.65544 | 126.15611 | 40121 ft | 403 kts | 233° |
| 2026-05-05 12:08 | 28.61946 | 126.10716 | 40121 ft | 403 kts | 234° |
| 2026-05-05 12:09 | 28.58434 | 126.05756 | 40118 ft | 402 kts | 234° |
| 2026-05-05 12:09 | 28.54932 | 126.00783 | 40118 ft | 402 kts | 234° |
| 2026-05-05 12:10 | 28.51422 | 125.95824 | 40118 ft | 403 kts | 234° |
| 2026-05-05 12:10 | 28.47905 | 125.90873 | 40118 ft | 403 kts | 234° |
| 2026-05-05 12:11 | 28.44383 | 125.85925 | 40118 ft | 403 kts | 234° |
| 2026-05-05 12:11 | 28.40885 | 125.81016 | 40119 ft | 403 kts | 234° |
| 2026-05-05 12:12 | 28.37357 | 125.76069 | 40117 ft | 404 kts | 234° |
| 2026-05-05 12:12 | 28.33819 | 125.71115 | 40119 ft | 403 kts | 234° |
| 2026-05-05 12:13 | 28.30281 | 125.66166 | 40118 ft | 403 kts | 234° |
| 2026-05-05 12:13 | 28.26736 | 125.61214 | 40118 ft | 403 kts | 234° |
| 2026-05-05 12:14 | 28.23215 | 125.56300 | 40118 ft | 403 kts | 234° |
| 2026-05-05 12:14 | 28.19667 | 125.51354 | 40122 ft | 404 kts | 234° |
| 2026-05-05 12:15 | 28.16106 | 125.46397 | 40122 ft | 404 kts | 234° |
| 2026-05-05 12:15 | 28.12580 | 125.41494 | 40118 ft | 403 kts | 234° |
| 2026-05-05 12:16 | 28.09029 | 125.36561 | 40116 ft | 403 kts | 234° |
| 2026-05-05 12:16 | 28.05501 | 125.31666 | 40083 ft | 403 kts | 234° |
| 2026-05-05 12:17 | 28.01941 | 125.26731 | 40118 ft | 405 kts | 233° |
| 2026-05-05 12:17 | 27.98363 | 125.21780 | 40117 ft | 405 kts | 234° |
| 2026-05-05 12:18 | 27.94793 | 125.16845 | 40115 ft | 405 kts | 234° |
| 2026-05-05 12:18 | 27.91249 | 125.11951 | 40116 ft | 404 kts | 234° |
| 2026-05-05 12:19 | 27.87675 | 125.07021 | 40108 ft | 405 kts | 234° |
| 2026-05-05 12:19 | 27.84091 | 125.02082 | 40119 ft | 406 kts | 233° |
| 2026-05-05 12:20 | 27.80518 | 124.97164 | 40124 ft | 406 kts | 234° |
| 2026-05-05 12:20 | 27.76940 | 124.92247 | 40124 ft | 405 kts | 234° |
| 2026-05-05 12:21 | 27.73357 | 124.87328 | 40123 ft | 405 kts | 234° |
| 2026-05-05 12:21 | 27.69778 | 124.82418 | 40099 ft | 405 kts | 234° |
| 2026-05-05 12:22 | 27.66199 | 124.77514 | 40111 ft | 408 kts | 233° |
| 2026-05-05 12:22 | 27.62586 | 124.72569 | 40124 ft | 408 kts | 234° |
| 2026-05-05 12:23 | 27.58983 | 124.67642 | 40103 ft | 406 kts | 234° |
| 2026-05-05 12:23 | 27.55398 | 124.62738 | 40110 ft | 405 kts | 234° |
| 2026-05-05 12:24 | 27.51829 | 124.57862 | 40095 ft | 406 kts | 234° |
| 2026-05-05 12:24 | 27.48222 | 124.52940 | 40105 ft | 407 kts | 234° |
| 2026-05-05 12:25 | 27.45214 | 124.48839 | 40106 ft | 408 kts | 234° |
| 2026-05-05 12:25 | 27.41589 | 124.43904 | 40107 ft | 407 kts | 233° |
| 2026-05-05 12:26 | 27.37994 | 124.39016 | 40103 ft | 406 kts | 233° |
| 2026-05-05 12:26 | 27.34375 | 124.34100 | 40090 ft | 407 kts | 233° |
| 2026-05-05 12:27 | 27.30780 | 124.29221 | 40100 ft | 408 kts | 233° |
| 2026-05-05 12:27 | 27.27145 | 124.24294 | 40100 ft | 408 kts | 233° |
| 2026-05-05 12:28 | 27.23512 | 124.19375 | 40105 ft | 408 kts | 233° |
| 2026-05-05 12:28 | 27.19909 | 124.14503 | 40099 ft | 407 kts | 233° |
| 2026-05-05 12:29 | 27.16277 | 124.09597 | 40080 ft | 407 kts | 233° |
| 2026-05-05 12:29 | 27.12637 | 124.04685 | 40097 ft | 409 kts | 233° |
| 2026-05-05 12:30 | 27.08985 | 123.99766 | 40099 ft | 410 kts | 233° |
| 2026-05-05 12:30 | 27.05335 | 123.94897 | 40120 ft | 410 kts | 233° |
| 2026-05-05 12:31 | 27.01651 | 123.90010 | 40097 ft | 409 kts | 233° |
| 2026-05-05 12:31 | 26.97997 | 123.85166 | 40072 ft | 408 kts | 233° |
| 2026-05-05 12:32 | 26.94314 | 123.80283 | 40096 ft | 410 kts | 233° |
| 2026-05-05 12:32 | 26.90616 | 123.75385 | 40090 ft | 411 kts | 233° |
| 2026-05-05 12:33 | 26.86918 | 123.70494 | 40094 ft | 411 kts | 233° |
| 2026-05-05 12:33 | 26.83220 | 123.65608 | 40089 ft | 411 kts | 233° |
| 2026-05-05 12:34 | 26.79518 | 123.60722 | 40091 ft | 410 kts | 233° |
| 2026-05-05 12:34 | 26.75841 | 123.55875 | 40088 ft | 410 kts | 233° |
| 2026-05-05 12:35 | 26.72138 | 123.50997 | 40088 ft | 410 kts | 233° |
| 2026-05-05 12:35 | 26.68463 | 123.46163 | 40088 ft | 410 kts | 233° |
| 2026-05-05 12:36 | 26.64756 | 123.41292 | 40088 ft | 410 kts | 233° |
| 2026-05-05 12:36 | 26.61046 | 123.36423 | 40076 ft | 410 kts | 233° |
| 2026-05-05 12:37 | 26.57351 | 123.31579 | 40085 ft | 411 kts | 233° |
| 2026-05-05 12:37 | 26.53639 | 123.26719 | 40086 ft | 411 kts | 233° |
| 2026-05-05 12:38 | 26.49919 | 123.21854 | 40083 ft | 411 kts | 233° |
| 2026-05-05 12:38 | 26.46215 | 123.17014 | 40084 ft | 411 kts | 233° |
| 2026-05-05 12:39 | 26.42495 | 123.12160 | 40089 ft | 411 kts | 233° |
| 2026-05-05 12:39 | 26.38767 | 123.07299 | 40083 ft | 413 kts | 233° |
| 2026-05-05 12:40 | 26.35041 | 123.02446 | 40083 ft | 413 kts | 233° |
| 2026-05-05 12:40 | 26.31295 | 122.97574 | 40082 ft | 413 kts | 233° |
| 2026-05-05 12:41 | 26.27546 | 122.92705 | 40084 ft | 413 kts | 233° |
| 2026-05-05 12:41 | 26.23818 | 122.87867 | 40091 ft | 414 kts | 233° |
| 2026-05-05 12:42 | 26.20058 | 122.82995 | 40070 ft | 414 kts | 233° |
| 2026-05-05 12:42 | 26.16296 | 122.78123 | 40070 ft | 414 kts | 233° |
| 2026-05-05 12:43 | 26.12553 | 122.73283 | 40072 ft | 414 kts | 233° |
| 2026-05-05 12:43 | 26.08784 | 122.68414 | 40073 ft | 414 kts | 233° |
| 2026-05-05 12:44 | 26.05032 | 122.63572 | 40090 ft | 414 kts | 233° |
| 2026-05-05 12:44 | 26.01261 | 122.58710 | 40079 ft | 414 kts | 232° |
| 2026-05-05 12:45 | 25.97515 | 122.53886 | 40039 ft | 415 kts | 232° |
| 2026-05-05 12:45 | 25.95628 | 122.51458 | 39833 ft | 414 kts | 232° |
| 2026-05-05 12:45 | 25.93742 | 122.49033 | 39609 ft | 413 kts | 232° |
| 2026-05-05 12:46 | 25.91860 | 122.46614 | 39379 ft | 412 kts | 232° |
| 2026-05-05 12:46 | 25.89990 | 122.44211 | 39152 ft | 411 kts | 232° |
| 2026-05-05 12:46 | 25.88123 | 122.41813 | 38932 ft | 409 kts | 232° |
| 2026-05-05 12:46 | 25.86265 | 122.39426 | 38701 ft | 408 kts | 232° |
| 2026-05-05 12:47 | 25.84410 | 122.37045 | 38421 ft | 408 kts | 232° |
| 2026-05-05 12:47 | 25.82569 | 122.34684 | 38129 ft | 409 kts | 232° |
| 2026-05-05 12:47 | 25.80721 | 122.32314 | 37699 ft | 403 kts | 232° |
| 2026-05-05 12:47 | 25.78893 | 122.29973 | 37161 ft | 400 kts | 232° |
| 2026-05-05 12:48 | 25.77072 | 122.27641 | 36604 ft | 398 kts | 232° |
| 2026-05-05 12:48 | 25.75253 | 122.25311 | 36051 ft | 404 kts | 232° |
| 2026-05-05 12:48 | 25.73385 | 122.22917 | 35462 ft | 410 kts | 231° |
| 2026-05-05 12:48 | 25.71515 | 122.20526 | 34860 ft | 410 kts | 231° |
| 2026-05-05 12:49 | 25.69619 | 122.18102 | 34232 ft | 422 kts | 231° |
| 2026-05-05 12:49 | 25.67682 | 122.15627 | 33466 ft | 425 kts | 231° |
| 2026-05-05 12:49 | 25.65771 | 122.13189 | 32729 ft | 425 kts | 231° |
| 2026-05-05 12:49 | 25.63837 | 122.10708 | 31984 ft | 425 kts | 232° |
| 2026-05-05 12:50 | 25.62106 | 122.08021 | 31262 ft | 433 kts | 241° |
| 2026-05-05 12:50 | 25.60854 | 122.04988 | 30472 ft | 433 kts | 251° |
| 2026-05-05 12:50 | 25.59969 | 122.01783 | 29593 ft | 434 kts | 253° |
| 2026-05-05 12:50 | 25.59171 | 121.98596 | 28888 ft | 431 kts | 253° |
| 2026-05-05 12:51 | 25.58378 | 121.95417 | 28287 ft | 426 kts | 253° |
| 2026-05-05 12:51 | 25.57587 | 121.92271 | 27707 ft | 421 kts | 253° |
| 2026-05-05 12:51 | 25.56798 | 121.89155 | 27135 ft | 416 kts | 253° |
| 2026-05-05 12:51 | 25.56024 | 121.86112 | 26566 ft | 411 kts | 253° |
| 2026-05-05 12:52 | 25.55248 | 121.83068 | 26001 ft | 407 kts | 252° |
| 2026-05-05 12:52 | 25.54480 | 121.80064 | 25433 ft | 403 kts | 252° |
| 2026-05-05 12:52 | 25.53718 | 121.77085 | 24874 ft | 400 kts | 252° |
| 2026-05-05 12:52 | 25.52970 | 121.74171 | 24333 ft | 396 kts | 252° |
| 2026-05-05 12:53 | 25.52218 | 121.71241 | 23786 ft | 393 kts | 252° |
| 2026-05-05 12:53 | 25.51472 | 121.68337 | 23170 ft | 390 kts | 252° |
| 2026-05-05 12:53 | 25.50734 | 121.65464 | 22606 ft | 385 kts | 254° |
| 2026-05-05 12:53 | 25.50037 | 121.62616 | 22087 ft | 381 kts | 255° |
| 2026-05-05 12:54 | 25.48251 | 121.57106 | 21012 ft | 387 kts | 240° |
| 2026-05-05 12:54 | 25.46673 | 121.54710 | 20479 ft | 382 kts | 232° |
| 2026-05-05 12:54 | 25.44958 | 121.52487 | 19926 ft | 378 kts | 231° |
| 2026-05-05 12:55 | 25.43233 | 121.50301 | 19383 ft | 374 kts | 231° |
| 2026-05-05 12:55 | 25.41531 | 121.48136 | 18816 ft | 371 kts | 231° |
| 2026-05-05 12:55 | 25.39849 | 121.45987 | 18260 ft | 367 kts | 231° |
| 2026-05-05 12:55 | 25.38201 | 121.43884 | 17667 ft | 364 kts | 231° |
| 2026-05-05 12:56 | 25.36553 | 121.41782 | 17116 ft | 360 kts | 232° |
| 2026-05-05 12:56 | 25.34918 | 121.39694 | 16576 ft | 356 kts | 232° |
| 2026-05-05 12:56 | 25.33305 | 121.37636 | 16026 ft | 353 kts | 232° |
| 2026-05-05 12:56 | 25.31680 | 121.35563 | 15459 ft | 356 kts | 232° |
| 2026-05-05 12:57 | 25.30069 | 121.33510 | 14937 ft | 352 kts | 233° |
| 2026-05-05 12:57 | 25.28473 | 121.31475 | 14369 ft | 348 kts | 233° |
| 2026-05-05 12:57 | 25.26887 | 121.29455 | 13815 ft | 345 kts | 233° |
| 2026-05-05 12:57 | 25.25324 | 121.27463 | 13221 ft | 342 kts | 233° |
| 2026-05-05 12:58 | 25.23792 | 121.25510 | 12660 ft | 337 kts | 233° |
| 2026-05-05 12:58 | 25.22263 | 121.23559 | 12118 ft | 337 kts | 233° |
| 2026-05-05 12:58 | 25.20705 | 121.21568 | 11562 ft | 341 kts | 233° |
| 2026-05-05 12:58 | 25.19161 | 121.19611 | 11261 ft | 329 kts | 233° |
| 2026-05-05 12:59 | 25.17719 | 121.17780 | 11136 ft | 311 kts | 233° |
| 2026-05-05 12:59 | 25.16341 | 121.16021 | 11010 ft | 295 kts | 234° |
| 2026-05-05 12:59 | 25.15034 | 121.14349 | 10885 ft | 280 kts | 234° |
| 2026-05-05 13:00 | 25.12604 | 121.11259 | 10626 ft | 255 kts | 234° |
| 2026-05-05 13:00 | 25.11461 | 121.09812 | 10500 ft | 244 kts | 234° |
| 2026-05-05 13:01 | 25.08269 | 121.05765 | 10060 ft | 233 kts | 234° |
| 2026-05-05 13:01 | 25.07203 | 121.04412 | 9815 ft | 234 kts | 234° |
| 2026-05-05 13:01 | 25.06133 | 121.03054 | 9524 ft | 234 kts | 234° |
| 2026-05-05 13:01 | 25.05067 | 121.01701 | 9261 ft | 233 kts | 233° |
| 2026-05-05 13:02 | 25.04000 | 121.00348 | 8997 ft | 233 kts | 233° |
| 2026-05-05 13:02 | 25.02936 | 120.98998 | 8748 ft | 233 kts | 233° |
| 2026-05-05 13:02 | 25.01870 | 120.97645 | 8481 ft | 233 kts | 233° |
| 2026-05-05 13:02 | 25.00809 | 120.96300 | 8216 ft | 233 kts | 233° |
| 2026-05-05 13:03 | 24.99743 | 120.94951 | 7951 ft | 233 kts | 234° |
| 2026-05-05 13:03 | 24.98697 | 120.93626 | 7692 ft | 232 kts | 234° |
| 2026-05-05 13:03 | 24.97634 | 120.92279 | 7432 ft | 232 kts | 233° |
| 2026-05-05 13:03 | 24.96572 | 120.90934 | 7169 ft | 231 kts | 233° |
| 2026-05-05 13:04 | 24.95513 | 120.89596 | 6904 ft | 231 kts | 233° |
| 2026-05-05 13:04 | 24.94416 | 120.88283 | 6633 ft | 233 kts | 227° |
| 2026-05-05 13:04 | 24.93073 | 120.87307 | 6371 ft | 238 kts | 208° |
| 2026-05-05 13:04 | 24.91451 | 120.86853 | 6118 ft | 241 kts | 194° |
| 2026-05-05 13:05 | 24.89771 | 120.86791 | 5843 ft | 244 kts | 177° |
| 2026-05-05 13:05 | 24.88171 | 120.87447 | 5555 ft | 250 kts | 148° |
| 2026-05-05 13:05 | 24.87074 | 120.88926 | 5295 ft | 252 kts | 115° |
| 2026-05-05 13:05 | 24.86873 | 120.90828 | 5182 ft | 253 kts | 84° |
| 2026-05-05 13:06 | 24.87333 | 120.92687 | 5084 ft | 251 kts | 72° |
| 2026-05-05 13:06 | 24.87938 | 120.94484 | 4948 ft | 249 kts | 71° |
| 2026-05-05 13:06 | 24.88544 | 120.96246 | 4843 ft | 248 kts | 72° |
| 2026-05-05 13:06 | 24.89147 | 120.98026 | 4714 ft | 248 kts | 73° |
| 2026-05-05 13:07 | 24.89741 | 120.99811 | 4493 ft | 247 kts | 73° |
| 2026-05-05 13:07 | 24.90325 | 121.01586 | 4228 ft | 245 kts | 73° |
| 2026-05-05 13:07 | 24.91067 | 121.03249 | 4012 ft | 237 kts | 59° |
| 2026-05-05 13:07 | 24.92060 | 121.04628 | 3991 ft | 221 kts | 51° |
| 2026-05-05 13:08 | 24.93045 | 121.05849 | 3908 ft | 206 kts | 52° |
| 2026-05-05 13:08 | 24.93964 | 121.07023 | 3700 ft | 200 kts | 52° |
| 2026-05-05 13:08 | 24.94871 | 121.08182 | 3399 ft | 199 kts | 52° |
| 2026-05-05 13:08 | 24.95781 | 121.09333 | 3113 ft | 198 kts | 52° |
| 2026-05-05 13:09 | 24.96671 | 121.10459 | 2843 ft | 196 kts | 52° |
| 2026-05-05 13:09 | 24.97558 | 121.11583 | 2583 ft | 191 kts | 52° |
| 2026-05-05 13:09 | 24.98404 | 121.12655 | 2339 ft | 180 kts | 52° |
| 2026-05-05 13:09 | 24.99192 | 121.13652 | 2099 ft | 166 kts | 52° |
| 2026-05-05 13:10 | 24.99922 | 121.14575 | 1895 ft | 153 kts | 52° |
| 2026-05-05 13:10 | 25.00606 | 121.15429 | 1690 ft | 144 kts | 48° |
| 2026-05-05 13:10 | 25.01256 | 121.16243 | 1521 ft | 141 kts | 49° |
| 2026-05-05 13:10 | 25.01900 | 121.17056 | 1332 ft | 140 kts | 49° |
| 2026-05-05 13:11 | 25.02540 | 121.17866 | 1152 ft | 140 kts | 49° |
| 2026-05-05 13:11 | 25.02965 | 121.18403 | 1042 ft | 140 kts | 49° |
| 2026-05-05 13:11 | 25.03603 | 121.19211 | 870 ft | 139 kts | 49° |
| 2026-05-05 13:11 | 25.04236 | 121.20012 | 682 ft | 138 kts | 49° |
| 2026-05-05 13:12 | 25.04865 | 121.20807 | 484 ft | 137 kts | 49° |
| 2026-05-05 13:12 | 25.05695 | 121.21861 | 260 ft | 136 kts | 49° |
| 2026-05-05 13:12 | 25.06117 | 121.22394 | 154 ft | 137 kts | 50° |
| 2026-05-05 13:12 | 25.06901 | 121.23395 | 102 ft | 114 kts | 49° |
| 2026-05-05 13:13 | 25.07184 | 121.23750 | 100 ft | 67 kts | 49° |
| 2026-05-05 13:13 | 25.07422 | 121.24053 | 100 ft | 48 kts | 49° |
| 2026-05-05 13:13 | 25.07651 | 121.24212 | 103 ft | 23 kts | 18° |
| 2026-05-05 13:13 | 25.07765 | 121.24253 | 105 ft | 15 kts | 19° |
| 2026-05-05 13:14 | 25.07844 | 121.24277 | 106 ft | 10 kts | 2° |
| 2026-05-05 13:14 | 25.07905 | 121.24249 | 107 ft | 10 kts | 322° |
| 2026-05-05 13:14 | 25.07956 | 121.24203 | 106 ft | 6 kts | 319° |
| 2026-05-05 13:14 | 25.07958 | 121.24201 | 105 ft | 1 kts | 319° |
| 2026-05-05 13:15 | 25.07980 | 121.24180 | 106 ft | 5 kts | 316° |
| 2026-05-05 13:15 | 25.07996 | 121.24142 | 106 ft | 6 kts | 287° |
| 2026-05-05 13:15 | 25.08016 | 121.24097 | 107 ft | 8 kts | 308° |
| 2026-05-05 13:15 | 25.08058 | 121.24054 | 105 ft | 9 kts | 320° |
| 2026-05-05 13:16 | 25.08077 | 121.24036 | 106 ft | 0 kts | 319° |
| 2026-05-05 13:16 | 25.08083 | 121.24031 | 106 ft | 0 kts | 319° |